Pauls Valley, Oklahoma
Current Conditions -  °F | °C
As of 9:55 AM on Friday 28 Nov 2014 (Local Time) from KPVJ Reporting Station
Clear Clear  
Wind Chill: 53°   Ceiling: Unl
Heat Index: 53°   Visibility: 10mi
Dew Point: 34°   Wind: 12mph
Humidity: 50%   Direction: 180°S
Pressure: 30.13"   Gusts: 17mph
Location:  34.74°N, 97.22°W
Report Text: KPVJ 281555Z AUTO 18010G15KT 10SM CLR 11/01 A3013 RMK AO2 T01140012
Loading
Personal Weather Stations






























Interactive Weather Map New forecast layout! Learn more

10-Day Weather Forecast

Advertisements
Track Severe Weather on mobile